sensor_id;sensor_type;location;lat;lon;timestamp;P1;durP1;ratioP1;P2;durP2;ratioP2
14292;SDS011;62290;59.420;17.842;2022-12-31T00:00:31;2.75;;;0.80;;
14292;SDS011;62290;59.420;17.842;2022-12-31T00:02:59;2.13;;;0.90;;
14292;SDS011;62290;59.420;17.842;2022-12-31T00:05:30;2.40;;;0.70;;
14292;SDS011;62290;59.420;17.842;2022-12-31T00:07:59;2.33;;;0.93;;
14292;SDS011;62290;59.420;17.842;2022-12-31T00:10:27;1.33;;;0.70;;
14292;SDS011;62290;59.420;17.842;2022-12-31T00:12:56;3.85;;;1.00;;
14292;SDS011;62290;59.420;17.842;2022-12-31T00:15:23;2.35;;;0.88;;
14292;SDS011;62290;59.420;17.842;2022-12-31T00:17:51;1.80;;;0.73;;
14292;SDS011;62290;59.420;17.842;2022-12-31T00:20:19;3.08;;;1.27;;
14292;SDS011;62290;59.420;17.842;2022-12-31T00:22:49;3.75;;;0.98;;
14292;SDS011;62290;59.420;17.842;2022-12-31T00:25:18;6.03;;;1.20;;
14292;SDS011;62290;59.420;17.842;2022-12-31T00:27:46;2.58;;;0.80;;
14292;SDS011;62290;59.420;17.842;2022-12-31T00:30:14;3.72;;;1.33;;
14292;SDS011;62290;59.420;17.842;2022-12-31T00:32:42;2.35;;;0.93;;
14292;SDS011;62290;59.420;17.842;2022-12-31T00:35:10;3.28;;;0.80;;
14292;SDS011;62290;59.420;17.842;2022-12-31T00:37:38;1.70;;;0.70;;
14292;SDS011;62290;59.420;17.842;2022-12-31T00:40:09;2.35;;;0.77;;
14292;SDS011;62290;59.420;17.842;2022-12-31T00:42:37;4.10;;;1.23;;
14292;SDS011;62290;59.420;17.842;2022-12-31T00:45:06;5.97;;;1.20;;
14292;SDS011;62290;59.420;17.842;2022-12-31T00:47:34;3.20;;;1.13;;
14292;SDS011;62290;59.420;17.842;2022-12-31T00:50:03;2.50;;;1.20;;
14292;SDS011;62290;59.420;17.842;2022-12-31T00:52:31;4.00;;;1.25;;
14292;SDS011;62290;59.420;17.842;2022-12-31T00:54:59;3.28;;;1.38;;
14292;SDS011;62290;59.420;17.842;2022-12-31T00:57:29;5.60;;;1.08;;
14292;SDS011;62290;59.420;17.842;2022-12-31T00:59:57;10.75;;;2.45;;
14292;SDS011;62290;59.420;17.842;2022-12-31T01:02:25;5.93;;;1.83;;
14292;SDS011;62290;59.420;17.842;2022-12-31T01:04:53;15.63;;;3.10;;
14292;SDS011;62290;59.420;17.842;2022-12-31T01:07:21;15.00;;;3.17;;
14292;SDS011;62290;59.420;17.842;2022-12-31T01:09:49;11.40;;;2.55;;
14292;SDS011;62290;59.420;17.842;2022-12-31T01:12:19;13.98;;;2.85;;
14292;SDS011;62290;59.420;17.842;2022-12-31T01:14:48;6.25;;;1.50;;
14292;SDS011;62290;59.420;17.842;2022-12-31T01:17:16;10.15;;;2.10;;
14292;SDS011;62290;59.420;17.842;2022-12-31T01:19:44;9.48;;;2.30;;
14292;SDS011;62290;59.420;17.842;2022-12-31T01:22:13;8.73;;;2.10;;
14292;SDS011;62290;59.420;17.842;2022-12-31T01:24:40;6.38;;;2.10;;
14292;SDS011;62290;59.420;17.842;2022-12-31T01:27:08;6.35;;;1.55;;
14292;SDS011;62290;59.420;17.842;2022-12-31T01:29:37;6.25;;;1.65;;
14292;SDS011;62290;59.420;17.842;2022-12-31T01:32:06;6.97;;;2.10;;
14292;SDS011;62290;59.420;17.842;2022-12-31T01:34:34;4.50;;;1.30;;
14292;SDS011;62290;59.420;17.842;2022-12-31T01:37:02;5.70;;;1.35;;
14292;SDS011;62290;59.420;17.842;2022-12-31T01:39:30;6.78;;;2.00;;
14292;SDS011;62290;59.420;17.842;2022-12-31T01:41:58;5.75;;;1.25;;
14292;SDS011;62290;59.420;17.842;2022-12-31T01:47:31;7.78;;;2.15;;
14292;SDS011;62290;59.420;17.842;2022-12-31T01:50:09;4.05;;;1.20;;
14292;SDS011;62290;59.420;17.842;2022-12-31T01:52:43;5.70;;;1.75;;
14292;SDS011;62290;59.420;17.842;2022-12-31T01:55:14;5.05;;;1.70;;
14292;SDS011;62290;59.420;17.842;2022-12-31T01:57:45;5.57;;;1.67;;
14292;SDS011;62290;59.420;17.842;2022-12-31T02:00:16;5.97;;;1.80;;
14292;SDS011;62290;59.420;17.842;2022-12-31T02:02:45;5.20;;;1.90;;
14292;SDS011;62290;59.420;17.842;2022-12-31T02:05:16;7.22;;;1.65;;
14292;SDS011;62290;59.420;17.842;2022-12-31T02:07:48;4.05;;;1.60;;
14292;SDS011;62290;59.420;17.842;2022-12-31T02:10:18;4.78;;;1.52;;
14292;SDS011;62290;59.420;17.842;2022-12-31T02:12:46;3.17;;;1.58;;
14292;SDS011;62290;59.420;17.842;2022-12-31T02:15:15;5.53;;;2.03;;
14292;SDS011;62290;59.420;17.842;2022-12-31T02:17:47;5.90;;;1.70;;
14292;SDS011;62290;59.420;17.842;2022-12-31T02:20:38;5.22;;;1.70;;
14292;SDS011;62290;59.420;17.842;2022-12-31T02:26:40;6.90;;;1.65;;
14292;SDS011;62290;59.420;17.842;2022-12-31T02:29:30;5.93;;;2.10;;
14292;SDS011;62290;59.420;17.842;2022-12-31T02:32:19;3.67;;;1.70;;
14292;SDS011;62290;59.420;17.842;2022-12-31T02:34:51;3.05;;;1.42;;
14292;SDS011;62290;59.420;17.842;2022-12-31T02:37:23;5.97;;;1.65;;
14292;SDS011;62290;59.420;17.842;2022-12-31T02:39:53;4.57;;;1.70;;
14292;SDS011;62290;59.420;17.842;2022-12-31T02:42:22;4.03;;;1.70;;
14292;SDS011;62290;59.420;17.842;2022-12-31T02:44:51;5.18;;;1.77;;
14292;SDS011;62290;59.420;17.842;2022-12-31T02:47:21;3.83;;;1.42;;
14292;SDS011;62290;59.420;17.842;2022-12-31T02:50:05;3.67;;;1.45;;
14292;SDS011;62290;59.420;17.842;2022-12-31T02:52:45;4.10;;;1.65;;
14292;SDS011;62290;59.420;17.842;2022-12-31T02:55:23;8.48;;;1.73;;
14292;SDS011;62290;59.420;17.842;2022-12-31T02:58:00;4.88;;;1.38;;
14292;SDS011;62290;59.420;17.842;2022-12-31T03:00:36;6.18;;;2.08;;
14292;SDS011;62290;59.420;17.842;2022-12-31T03:03:28;3.67;;;1.23;;
14292;SDS011;62290;59.420;17.842;2022-12-31T03:05:58;3.28;;;1.60;;
14292;SDS011;62290;59.420;17.842;2022-12-31T03:08:28;4.30;;;1.65;;
14292;SDS011;62290;59.420;17.842;2022-12-31T03:10:56;4.00;;;1.30;;
14292;SDS011;62290;59.420;17.842;2022-12-31T03:13:24;4.43;;;1.70;;
14292;SDS011;62290;59.420;17.842;2022-12-31T03:15:53;5.82;;;1.60;;
14292;SDS011;62290;59.420;17.842;2022-12-31T03:18:21;4.13;;;1.50;;
14292;SDS011;62290;59.420;17.842;2022-12-31T03:21:10;3.75;;;1.38;;
14292;SDS011;62290;59.420;17.842;2022-12-31T03:23:56;2.90;;;1.30;;
14292;SDS011;62290;59.420;17.842;2022-12-31T03:26:42;3.58;;;1.55;;
14292;SDS011;62290;59.420;17.842;2022-12-31T03:29:10;5.15;;;1.38;;
14292;SDS011;62290;59.420;17.842;2022-12-31T03:31:39;3.78;;;1.63;;
14292;SDS011;62290;59.420;17.842;2022-12-31T03:34:07;4.63;;;1.63;;
14292;SDS011;62290;59.420;17.842;2022-12-31T03:36:35;4.47;;;1.52;;
14292;SDS011;62290;59.420;17.842;2022-12-31T03:39:03;3.25;;;1.40;;
14292;SDS011;62290;59.420;17.842;2022-12-31T03:41:31;6.95;;;1.30;;
14292;SDS011;62290;59.420;17.842;2022-12-31T03:43:59;2.65;;;1.00;;
14292;SDS011;62290;59.420;17.842;2022-12-31T03:46:27;4.75;;;1.58;;
14292;SDS011;62290;59.420;17.842;2022-12-31T03:48:56;2.55;;;1.38;;
14292;SDS011;62290;59.420;17.842;2022-12-31T03:51:24;2.70;;;1.00;;
14292;SDS011;62290;59.420;17.842;2022-12-31T03:53:52;2.38;;;1.20;;
14292;SDS011;62290;59.420;17.842;2022-12-31T03:56:20;3.97;;;1.73;;
14292;SDS011;62290;59.420;17.842;2022-12-31T03:58:48;4.30;;;1.20;;
14292;SDS011;62290;59.420;17.842;2022-12-31T04:01:16;4.22;;;1.30;;
14292;SDS011;62290;59.420;17.842;2022-12-31T04:03:45;2.38;;;0.90;;
14292;SDS011;62290;59.420;17.842;2022-12-31T04:06:14;3.45;;;1.33;;
14292;SDS011;62290;59.420;17.842;2022-12-31T04:08:42;3.22;;;1.20;;
14292;SDS011;62290;59.420;17.842;2022-12-31T04:11:11;2.67;;;1.23;;
14292;SDS011;62290;59.420;17.842;2022-12-31T04:13:46;2.40;;;1.15;;
14292;SDS011;62290;59.420;17.842;2022-12-31T04:16:14;3.22;;;1.20;;
14292;SDS011;62290;59.420;17.842;2022-12-31T04:18:42;3.83;;;1.35;;
14292;SDS011;62290;59.420;17.842;2022-12-31T04:21:10;3.00;;;1.30;;
14292;SDS011;62290;59.420;17.842;2022-12-31T04:23:40;2.92;;;1.55;;
14292;SDS011;62290;59.420;17.842;2022-12-31T04:26:08;2.72;;;1.52;;
14292;SDS011;62290;59.420;17.842;2022-12-31T04:28:36;3.05;;;1.40;;
14292;SDS011;62290;59.420;17.842;2022-12-31T04:31:04;5.72;;;1.75;;
14292;SDS011;62290;59.420;17.842;2022-12-31T04:33:32;3.20;;;1.50;;
14292;SDS011;62290;59.420;17.842;2022-12-31T04:36:00;5.18;;;1.40;;
14292;SDS011;62290;59.420;17.842;2022-12-31T04:38:28;2.17;;;1.20;;
14292;SDS011;62290;59.420;17.842;2022-12-31T04:40:58;3.67;;;1.33;;
14292;SDS011;62290;59.420;17.842;2022-12-31T04:43:46;3.33;;;1.23;;
14292;SDS011;62290;59.420;17.842;2022-12-31T04:46:16;2.90;;;1.20;;
14292;SDS011;62290;59.420;17.842;2022-12-31T04:48:46;4.90;;;1.77;;
14292;SDS011;62290;59.420;17.842;2022-12-31T04:51:14;2.58;;;1.60;;
14292;SDS011;62290;59.420;17.842;2022-12-31T04:53:42;3.28;;;1.52;;
14292;SDS011;62290;59.420;17.842;2022-12-31T04:56:11;4.38;;;1.45;;
14292;SDS011;62290;59.420;17.842;2022-12-31T04:58:40;2.08;;;1.10;;
14292;SDS011;62290;59.420;17.842;2022-12-31T05:01:08;3.15;;;1.38;;
14292;SDS011;62290;59.420;17.842;2022-12-31T05:03:36;3.05;;;1.20;;
14292;SDS011;62290;59.420;17.842;2022-12-31T05:06:05;3.25;;;1.10;;
14292;SDS011;62290;59.420;17.842;2022-12-31T05:08:35;2.25;;;1.35;;
14292;SDS011;62290;59.420;17.842;2022-12-31T05:11:03;3.50;;;1.50;;
14292;SDS011;62290;59.420;17.842;2022-12-31T05:13:33;8.65;;;1.08;;
14292;SDS011;62290;59.420;17.842;2022-12-31T05:16:01;4.05;;;1.33;;
14292;SDS011;62290;59.420;17.842;2022-12-31T05:18:30;2.70;;;1.48;;
14292;SDS011;62290;59.420;17.842;2022-12-31T05:20:58;4.32;;;1.30;;
14292;SDS011;62290;59.420;17.842;2022-12-31T05:23:26;3.47;;;1.27;;
14292;SDS011;62290;59.420;17.842;2022-12-31T05:25:55;1.38;;;0.82;;
14292;SDS011;62290;59.420;17.842;2022-12-31T05:28:25;2.28;;;0.98;;
14292;SDS011;62290;59.420;17.842;2022-12-31T05:30:54;1.80;;;1.08;;
14292;SDS011;62290;59.420;17.842;2022-12-31T05:33:22;1.98;;;0.90;;
14292;SDS011;62290;59.420;17.842;2022-12-31T05:35:50;4.00;;;1.02;;
14292;SDS011;62290;59.420;17.842;2022-12-31T05:38:20;1.80;;;1.00;;
14292;SDS011;62290;59.420;17.842;2022-12-31T05:40:48;2.70;;;0.90;;
14292;SDS011;62290;59.420;17.842;2022-12-31T05:43:16;2.75;;;1.20;;
14292;SDS011;62290;59.420;17.842;2022-12-31T05:45:44;1.73;;;1.02;;
14292;SDS011;62290;59.420;17.842;2022-12-31T05:48:13;2.35;;;0.82;;
14292;SDS011;62290;59.420;17.842;2022-12-31T05:50:41;2.47;;;0.73;;
14292;SDS011;62290;59.420;17.842;2022-12-31T05:53:09;2.42;;;0.93;;
14292;SDS011;62290;59.420;17.842;2022-12-31T05:55:37;1.80;;;0.90;;
14292;SDS011;62290;59.420;17.842;2022-12-31T05:58:06;1.92;;;0.82;;
14292;SDS011;62290;59.420;17.842;2022-12-31T06:00:36;1.38;;;0.82;;
14292;SDS011;62290;59.420;17.842;2022-12-31T06:03:04;1.58;;;0.80;;
14292;SDS011;62290;59.420;17.842;2022-12-31T06:05:34;3.00;;;1.20;;
14292;SDS011;62290;59.420;17.842;2022-12-31T06:08:05;1.58;;;0.93;;
14292;SDS011;62290;59.420;17.842;2022-12-31T06:10:33;1.73;;;0.70;;
14292;SDS011;62290;59.420;17.842;2022-12-31T06:13:01;2.50;;;0.90;;
14292;SDS011;62290;59.420;17.842;2022-12-31T06:15:29;1.90;;;0.70;;
14292;SDS011;62290;59.420;17.842;2022-12-31T06:17:57;3.22;;;1.20;;
14292;SDS011;62290;59.420;17.842;2022-12-31T06:20:25;1.40;;;0.85;;
14292;SDS011;62290;59.420;17.842;2022-12-31T06:22:54;4.00;;;1.88;;
14292;SDS011;62290;59.420;17.842;2022-12-31T06:25:22;2.67;;;0.93;;
14292;SDS011;62290;59.420;17.842;2022-12-31T06:27:50;1.55;;;0.90;;
14292;SDS011;62290;59.420;17.842;2022-12-31T06:30:18;2.72;;;0.70;;
14292;SDS011;62290;59.420;17.842;2022-12-31T06:32:46;2.28;;;0.82;;
14292;SDS011;62290;59.420;17.842;2022-12-31T06:35:16;1.63;;;0.70;;
14292;SDS011;62290;59.420;17.842;2022-12-31T06:37:44;2.70;;;1.15;;
14292;SDS011;62290;59.420;17.842;2022-12-31T06:40:14;1.08;;;0.50;;
14292;SDS011;62290;59.420;17.842;2022-12-31T06:42:42;2.13;;;0.63;;
14292;SDS011;62290;59.420;17.842;2022-12-31T06:45:10;1.52;;;0.77;;
14292;SDS011;62290;59.420;17.842;2022-12-31T06:47:38;1.08;;;0.50;;
14292;SDS011;62290;59.420;17.842;2022-12-31T06:50:07;4.15;;;0.88;;
14292;SDS011;62290;59.420;17.842;2022-12-31T06:52:35;2.88;;;1.02;;
14292;SDS011;62290;59.420;17.842;2022-12-31T06:55:04;1.48;;;0.70;;
14292;SDS011;62290;59.420;17.842;2022-12-31T06:57:35;2.55;;;0.90;;
14292;SDS011;62290;59.420;17.842;2022-12-31T07:00:03;2.42;;;0.98;;
14292;SDS011;62290;59.420;17.842;2022-12-31T07:02:37;2.20;;;1.00;;
14292;SDS011;62290;59.420;17.842;2022-12-31T07:05:25;1.13;;;0.70;;
14292;SDS011;62290;59.420;17.842;2022-12-31T07:08:00;1.13;;;0.60;;
14292;SDS011;62290;59.420;17.842;2022-12-31T07:10:41;3.10;;;0.98;;
14292;SDS011;62290;59.420;17.842;2022-12-31T07:16:21;1.98;;;0.68;;
14292;SDS011;62290;59.420;17.842;2022-12-31T07:19:03;2.20;;;0.70;;
14292;SDS011;62290;59.420;17.842;2022-12-31T07:21:40;2.10;;;0.70;;
14292;SDS011;62290;59.420;17.842;2022-12-31T07:24:09;1.27;;;0.80;;
14292;SDS011;62290;59.420;17.842;2022-12-31T07:26:43;2.20;;;0.90;;
14292;SDS011;62290;59.420;17.842;2022-12-31T07:29:26;2.15;;;0.80;;
14292;SDS011;62290;59.420;17.842;2022-12-31T07:32:08;1.30;;;0.80;;
14292;SDS011;62290;59.420;17.842;2022-12-31T07:34:47;1.92;;;1.10;;
14292;SDS011;62290;59.420;17.842;2022-12-31T07:37:26;2.05;;;0.80;;
14292;SDS011;62290;59.420;17.842;2022-12-31T07:40:12;1.90;;;0.80;;
14292;SDS011;62290;59.420;17.842;2022-12-31T07:42:51;3.00;;;1.05;;
14292;SDS011;62290;59.420;17.842;2022-12-31T07:45:31;2.67;;;0.68;;
14292;SDS011;62290;59.420;17.842;2022-12-31T07:48:06;1.20;;;0.80;;
14292;SDS011;62290;59.420;17.842;2022-12-31T07:50:47;3.42;;;1.00;;
14292;SDS011;62290;59.420;17.842;2022-12-31T07:53:16;1.77;;;0.93;;
14292;SDS011;62290;59.420;17.842;2022-12-31T07:55:44;1.95;;;0.75;;
14292;SDS011;62290;59.420;17.842;2022-12-31T07:58:16;2.35;;;0.90;;
14292;SDS011;62290;59.420;17.842;2022-12-31T08:00:50;2.50;;;0.85;;
14292;SDS011;62290;59.420;17.842;2022-12-31T08:03:25;3.25;;;1.00;;
14292;SDS011;62290;59.420;17.842;2022-12-31T08:06:09;1.00;;;0.70;;
14292;SDS011;62290;59.420;17.842;2022-12-31T08:08:43;1.50;;;0.90;;
14292;SDS011;62290;59.420;17.842;2022-12-31T08:11:17;1.45;;;0.77;;
14292;SDS011;62290;59.420;17.842;2022-12-31T08:13:52;2.42;;;1.00;;
14292;SDS011;62290;59.420;17.842;2022-12-31T08:16:24;1.95;;;0.90;;
14292;SDS011;62290;59.420;17.842;2022-12-31T08:18:53;3.28;;;1.27;;
14292;SDS011;62290;59.420;17.842;2022-12-31T08:21:24;3.25;;;0.68;;
14292;SDS011;62290;59.420;17.842;2022-12-31T08:24:02;2.03;;;0.80;;
14292;SDS011;62290;59.420;17.842;2022-12-31T08:26:42;1.70;;;0.82;;
14292;SDS011;62290;59.420;17.842;2022-12-31T08:29:28;2.80;;;0.82;;
14292;SDS011;62290;59.420;17.842;2022-12-31T08:32:05;2.10;;;0.85;;
14292;SDS011;62290;59.420;17.842;2022-12-31T08:34:40;2.28;;;0.75;;
14292;SDS011;62290;59.420;17.842;2022-12-31T08:37:17;3.05;;;0.70;;
14292;SDS011;62290;59.420;17.842;2022-12-31T08:39:56;2.85;;;1.23;;
14292;SDS011;62290;59.420;17.842;2022-12-31T08:42:35;1.88;;;0.80;;
14292;SDS011;62290;59.420;17.842;2022-12-31T08:45:12;2.78;;;1.08;;
14292;SDS011;62290;59.420;17.842;2022-12-31T08:47:48;2.60;;;1.05;;
14292;SDS011;62290;59.420;17.842;2022-12-31T08:50:27;1.55;;;0.85;;
14292;SDS011;62290;59.420;17.842;2022-12-31T08:52:56;2.17;;;0.82;;
14292;SDS011;62290;59.420;17.842;2022-12-31T08:55:24;2.30;;;1.20;;
14292;SDS011;62290;59.420;17.842;2022-12-31T08:57:54;2.75;;;1.15;;
14292;SDS011;62290;59.420;17.842;2022-12-31T09:00:36;2.20;;;0.70;;
14292;SDS011;62290;59.420;17.842;2022-12-31T09:06:00;4.45;;;1.00;;
14292;SDS011;62290;59.420;17.842;2022-12-31T09:08:35;2.08;;;0.80;;
14292;SDS011;62290;59.420;17.842;2022-12-31T09:11:12;2.08;;;0.88;;
14292;SDS011;62290;59.420;17.842;2022-12-31T09:16:45;2.10;;;1.17;;
14292;SDS011;62290;59.420;17.842;2022-12-31T09:19:23;3.80;;;1.00;;
14292;SDS011;62290;59.420;17.842;2022-12-31T09:21:51;1.95;;;0.95;;
14292;SDS011;62290;59.420;17.842;2022-12-31T09:24:20;1.58;;;0.80;;
14292;SDS011;62290;59.420;17.842;2022-12-31T09:26:51;2.60;;;0.80;;
14292;SDS011;62290;59.420;17.842;2022-12-31T09:29:33;4.65;;;1.70;;
14292;SDS011;62290;59.420;17.842;2022-12-31T09:32:13;3.33;;;1.05;;
14292;SDS011;62290;59.420;17.842;2022-12-31T09:34:52;2.13;;;1.10;;
14292;SDS011;62290;59.420;17.842;2022-12-31T09:37:28;3.15;;;1.00;;
14292;SDS011;62290;59.420;17.842;2022-12-31T09:40:10;2.55;;;0.90;;
14292;SDS011;62290;59.420;17.842;2022-12-31T09:46:37;4.22;;;1.13;;
14292;SDS011;62290;59.420;17.842;2022-12-31T09:49:36;3.15;;;1.10;;
14292;SDS011;62290;59.420;17.842;2022-12-31T09:52:25;2.13;;;0.90;;
14292;SDS011;62290;59.420;17.842;2022-12-31T09:55:11;4.88;;;1.13;;
14292;SDS011;62290;59.420;17.842;2022-12-31T09:57:56;2.92;;;1.10;;
14292;SDS011;62290;59.420;17.842;2022-12-31T10:00:36;4.15;;;1.10;;
14292;SDS011;62290;59.420;17.842;2022-12-31T10:03:15;4.63;;;1.02;;
14292;SDS011;62290;59.420;17.842;2022-12-31T10:06:04;2.97;;;1.08;;
14292;SDS011;62290;59.420;17.842;2022-12-31T10:08:48;4.30;;;1.20;;
14292;SDS011;62290;59.420;17.842;2022-12-31T10:11:31;3.05;;;0.95;;
14292;SDS011;62290;59.420;17.842;2022-12-31T10:14:12;3.85;;;1.27;;
14292;SDS011;62290;59.420;17.842;2022-12-31T10:17:01;3.67;;;1.35;;
14292;SDS011;62290;59.420;17.842;2022-12-31T10:19:53;4.28;;;1.30;;
14292;SDS011;62290;59.420;17.842;2022-12-31T10:25:45;4.63;;;1.38;;
14292;SDS011;62290;59.420;17.842;2022-12-31T10:28:30;4.97;;;1.35;;
14292;SDS011;62290;59.420;17.842;2022-12-31T10:31:12;3.03;;;1.27;;
14292;SDS011;62290;59.420;17.842;2022-12-31T10:33:42;4.45;;;1.35;;
14292;SDS011;62290;59.420;17.842;2022-12-31T10:36:17;3.35;;;1.10;;
14292;SDS011;62290;59.420;17.842;2022-12-31T10:38:51;3.72;;;1.00;;
14292;SDS011;62290;59.420;17.842;2022-12-31T10:42:03;6.03;;;1.10;;
14292;SDS011;62290;59.420;17.842;2022-12-31T10:51:13;3.35;;;1.00;;
14292;SDS011;62290;59.420;17.842;2022-12-31T10:57:37;3.60;;;1.20;;
14292;SDS011;62290;59.420;17.842;2022-12-31T11:00:30;3.33;;;1.33;;
14292;SDS011;62290;59.420;17.842;2022-12-31T11:06:27;5.97;;;1.40;;
14292;SDS011;62290;59.420;17.842;2022-12-31T11:09:30;4.10;;;1.27;;
14292;SDS011;62290;59.420;17.842;2022-12-31T11:12:25;2.13;;;1.08;;
14292;SDS011;62290;59.420;17.842;2022-12-31T11:15:21;4.95;;;1.48;;
14292;SDS011;62290;59.420;17.842;2022-12-31T11:18:01;4.78;;;1.30;;
14292;SDS011;62290;59.420;17.842;2022-12-31T11:20:38;4.78;;;1.35;;
14292;SDS011;62290;59.420;17.842;2022-12-31T11:23:21;3.25;;;1.05;;
14292;SDS011;62290;59.420;17.842;2022-12-31T11:26:04;4.32;;;1.63;;
14292;SDS011;62290;59.420;17.842;2022-12-31T11:28:57;6.40;;;1.73;;
14292;SDS011;62290;59.420;17.842;2022-12-31T11:32:00;8.90;;;2.38;;
14292;SDS011;62290;59.420;17.842;2022-12-31T11:34:43;5.47;;;1.90;;
14292;SDS011;62290;59.420;17.842;2022-12-31T11:37:30;5.05;;;1.40;;
14292;SDS011;62290;59.420;17.842;2022-12-31T11:40:11;4.68;;;1.38;;
14292;SDS011;62290;59.420;17.842;2022-12-31T11:42:49;5.00;;;1.17;;
14292;SDS011;62290;59.420;17.842;2022-12-31T11:45:27;3.25;;;1.52;;
14292;SDS011;62290;59.420;17.842;2022-12-31T11:48:15;4.15;;;1.58;;
14292;SDS011;62290;59.420;17.842;2022-12-31T11:51:02;6.53;;;1.42;;
14292;SDS011;62290;59.420;17.842;2022-12-31T11:53:55;4.50;;;1.45;;
14292;SDS011;62290;59.420;17.842;2022-12-31T11:56:49;5.40;;;1.48;;
14292;SDS011;62290;59.420;17.842;2022-12-31T11:59:26;5.15;;;1.52;;
14292;SDS011;62290;59.420;17.842;2022-12-31T12:01:54;5.35;;;1.63;;
14292;SDS011;62290;59.420;17.842;2022-12-31T12:04:28;3.60;;;1.35;;
14292;SDS011;62290;59.420;17.842;2022-12-31T12:06:56;4.25;;;1.60;;
14292;SDS011;62290;59.420;17.842;2022-12-31T12:09:26;4.97;;;1.60;;
14292;SDS011;62290;59.420;17.842;2022-12-31T12:11:57;5.10;;;1.40;;
14292;SDS011;62290;59.420;17.842;2022-12-31T12:14:29;4.20;;;1.50;;
14292;SDS011;62290;59.420;17.842;2022-12-31T12:16:59;4.38;;;1.58;;
14292;SDS011;62290;59.420;17.842;2022-12-31T12:19:33;6.13;;;1.48;;
14292;SDS011;62290;59.420;17.842;2022-12-31T12:22:08;3.95;;;1.40;;
14292;SDS011;62290;59.420;17.842;2022-12-31T12:24:38;3.55;;;1.55;;
14292;SDS011;62290;59.420;17.842;2022-12-31T12:27:18;7.05;;;1.60;;
14292;SDS011;62290;59.420;17.842;2022-12-31T12:29:47;3.03;;;1.30;;
14292;SDS011;62290;59.420;17.842;2022-12-31T12:32:16;6.03;;;1.30;;
14292;SDS011;62290;59.420;17.842;2022-12-31T12:34:47;6.40;;;1.63;;
14292;SDS011;62290;59.420;17.842;2022-12-31T12:37:28;2.85;;;1.30;;
14292;SDS011;62290;59.420;17.842;2022-12-31T12:39:59;6.55;;;1.52;;
14292;SDS011;62290;59.420;17.842;2022-12-31T12:42:29;4.40;;;2.13;;
14292;SDS011;62290;59.420;17.842;2022-12-31T12:44:59;4.35;;;1.45;;
14292;SDS011;62290;59.420;17.842;2022-12-31T12:47:28;3.45;;;1.52;;
14292;SDS011;62290;59.420;17.842;2022-12-31T12:49:59;4.53;;;1.73;;
14292;SDS011;62290;59.420;17.842;2022-12-31T12:52:40;4.53;;;1.35;;
14292;SDS011;62290;59.420;17.842;2022-12-31T12:55:26;4.90;;;1.85;;
14292;SDS011;62290;59.420;17.842;2022-12-31T12:58:04;5.65;;;1.98;;
14292;SDS011;62290;59.420;17.842;2022-12-31T13:00:45;4.50;;;1.73;;
14292;SDS011;62290;59.420;17.842;2022-12-31T13:03:37;3.92;;;1.52;;
14292;SDS011;62290;59.420;17.842;2022-12-31T13:06:52;6.82;;;1.88;;
14292;SDS011;62290;59.420;17.842;2022-12-31T13:09:36;4.45;;;1.63;;
14292;SDS011;62290;59.420;17.842;2022-12-31T13:12:17;4.22;;;1.42;;
14292;SDS011;62290;59.420;17.842;2022-12-31T13:14:52;6.50;;;1.60;;
14292;SDS011;62290;59.420;17.842;2022-12-31T13:17:33;5.47;;;2.03;;
14292;SDS011;62290;59.420;17.842;2022-12-31T13:20:22;4.60;;;1.70;;
14292;SDS011;62290;59.420;17.842;2022-12-31T13:22:58;5.13;;;1.73;;
14292;SDS011;62290;59.420;17.842;2022-12-31T13:25:32;4.47;;;1.63;;
14292;SDS011;62290;59.420;17.842;2022-12-31T13:28:10;5.72;;;1.80;;
14292;SDS011;62290;59.420;17.842;2022-12-31T13:30:42;2.72;;;1.20;;
14292;SDS011;62290;59.420;17.842;2022-12-31T13:33:14;4.38;;;1.60;;
14292;SDS011;62290;59.420;17.842;2022-12-31T13:35:45;4.10;;;1.50;;
14292;SDS011;62290;59.420;17.842;2022-12-31T13:38:18;4.50;;;1.70;;
14292;SDS011;62290;59.420;17.842;2022-12-31T13:40:51;5.30;;;1.50;;
14292;SDS011;62290;59.420;17.842;2022-12-31T13:43:26;4.40;;;1.88;;
14292;SDS011;62290;59.420;17.842;2022-12-31T13:46:06;5.72;;;1.70;;
14292;SDS011;62290;59.420;17.842;2022-12-31T13:48:43;4.55;;;1.88;;
14292;SDS011;62290;59.420;17.842;2022-12-31T13:51:19;4.40;;;1.30;;
14292;SDS011;62290;59.420;17.842;2022-12-31T13:53:53;3.90;;;1.52;;
14292;SDS011;62290;59.420;17.842;2022-12-31T13:56:28;4.50;;;1.63;;
14292;SDS011;62290;59.420;17.842;2022-12-31T13:59:04;4.28;;;1.48;;
14292;SDS011;62290;59.420;17.842;2022-12-31T14:01:41;2.95;;;1.45;;
14292;SDS011;62290;59.420;17.842;2022-12-31T14:04:15;4.15;;;1.70;;
14292;SDS011;62290;59.420;17.842;2022-12-31T14:06:49;4.40;;;1.35;;
14292;SDS011;62290;59.420;17.842;2022-12-31T14:09:24;3.20;;;1.20;;
14292;SDS011;62290;59.420;17.842;2022-12-31T14:11:59;5.70;;;1.40;;
14292;SDS011;62290;59.420;17.842;2022-12-31T14:14:39;4.30;;;1.70;;
14292;SDS011;62290;59.420;17.842;2022-12-31T14:17:14;6.32;;;2.10;;
14292;SDS011;62290;59.420;17.842;2022-12-31T14:19:51;7.00;;;1.77;;
14292;SDS011;62290;59.420;17.842;2022-12-31T14:22:31;7.68;;;1.80;;
14292;SDS011;62290;59.420;17.842;2022-12-31T14:25:13;4.57;;;1.73;;
14292;SDS011;62290;59.420;17.842;2022-12-31T14:27:47;8.98;;;1.70;;
14292;SDS011;62290;59.420;17.842;2022-12-31T14:30:19;6.75;;;1.90;;
14292;SDS011;62290;59.420;17.842;2022-12-31T14:35:39;6.82;;;1.90;;
14292;SDS011;62290;59.420;17.842;2022-12-31T14:38:21;8.05;;;2.38;;
14292;SDS011;62290;59.420;17.842;2022-12-31T14:41:05;6.97;;;1.77;;
14292;SDS011;62290;59.420;17.842;2022-12-31T14:43:49;6.05;;;1.90;;
14292;SDS011;62290;59.420;17.842;2022-12-31T14:46:27;4.57;;;1.83;;
14292;SDS011;62290;59.420;17.842;2022-12-31T14:49:00;4.90;;;1.73;;
14292;SDS011;62290;59.420;17.842;2022-12-31T14:51:41;6.32;;;2.20;;
14292;SDS011;62290;59.420;17.842;2022-12-31T14:54:21;5.10;;;1.55;;
14292;SDS011;62290;59.420;17.842;2022-12-31T14:56:56;5.00;;;1.80;;
14292;SDS011;62290;59.420;17.842;2022-12-31T14:59:24;6.55;;;1.90;;
14292;SDS011;62290;59.420;17.842;2022-12-31T15:01:54;8.10;;;2.00;;
14292;SDS011;62290;59.420;17.842;2022-12-31T15:04:29;6.40;;;2.53;;
14292;SDS011;62290;59.420;17.842;2022-12-31T15:07:01;4.65;;;1.80;;
14292;SDS011;62290;59.420;17.842;2022-12-31T15:09:40;9.18;;;2.10;;
14292;SDS011;62290;59.420;17.842;2022-12-31T15:12:24;4.95;;;2.00;;
14292;SDS011;62290;59.420;17.842;2022-12-31T15:15:14;8.32;;;2.10;;
14292;SDS011;62290;59.420;17.842;2022-12-31T15:17:57;6.00;;;2.45;;
14292;SDS011;62290;59.420;17.842;2022-12-31T15:20:48;5.65;;;1.98;;
14292;SDS011;62290;59.420;17.842;2022-12-31T15:23:29;6.28;;;1.88;;
14292;SDS011;62290;59.420;17.842;2022-12-31T15:26:01;5.40;;;1.85;;
14292;SDS011;62290;59.420;17.842;2022-12-31T15:28:33;6.68;;;2.33;;
14292;SDS011;62290;59.420;17.842;2022-12-31T15:31:05;7.15;;;2.15;;
14292;SDS011;62290;59.420;17.842;2022-12-31T15:33:52;6.18;;;1.70;;
14292;SDS011;62290;59.420;17.842;2022-12-31T15:36:23;6.03;;;2.22;;
14292;SDS011;62290;59.420;17.842;2022-12-31T15:39:02;6.88;;;2.00;;
14292;SDS011;62290;59.420;17.842;2022-12-31T15:41:37;8.80;;;2.28;;
14292;SDS011;62290;59.420;17.842;2022-12-31T15:44:29;8.65;;;1.83;;
14292;SDS011;62290;59.420;17.842;2022-12-31T15:47:07;6.70;;;1.73;;
14292;SDS011;62290;59.420;17.842;2022-12-31T15:49:43;6.80;;;2.00;;
14292;SDS011;62290;59.420;17.842;2022-12-31T15:52:13;8.63;;;1.92;;
14292;SDS011;62290;59.420;17.842;2022-12-31T15:54:47;7.78;;;2.20;;